sensor_id;sensor_type;location;lat;lon;timestamp;temperature;humidity
37786;DHT22;23625;48.784;9.336;2023-04-25T00:02:25;8.20;99.90
37786;DHT22;23625;48.784;9.336;2023-04-25T00:04:50;8.20;99.90
37786;DHT22;23625;48.784;9.336;2023-04-25T00:07:17;8.20;99.90
37786;DHT22;23625;48.784;9.336;2023-04-25T00:09:43;8.20;99.90
37786;DHT22;23625;48.784;9.336;2023-04-25T00:12:08;8.20;99.90
37786;DHT22;23625;48.784;9.336;2023-04-25T00:14:34;8.30;99.90
37786;DHT22;23625;48.784;9.336;2023-04-25T00:17:01;8.30;99.90
37786;DHT22;23625;48.784;9.336;2023-04-25T00:19:28;8.30;99.90
37786;DHT22;23625;48.784;9.336;2023-04-25T00:21:57;8.40;99.90
37786;DHT22;23625;48.784;9.336;2023-04-25T00:24:23;8.30;99.90
37786;DHT22;23625;48.784;9.336;2023-04-25T00:26:49;8.30;99.90
37786;DHT22;23625;48.784;9.336;2023-04-25T00:29:15;8.30;99.90
37786;DHT22;23625;48.784;9.336;2023-04-25T00:31:40;8.30;99.90
37786;DHT22;23625;48.784;9.336;2023-04-25T00:34:06;8.30;99.90
37786;DHT22;23625;48.784;9.336;2023-04-25T00:36:32;8.30;99.90
37786;DHT22;23625;48.784;9.336;2023-04-25T00:38:58;8.20;99.90
37786;DHT22;23625;48.784;9.336;2023-04-25T00:41:25;8.20;99.90
37786;DHT22;23625;48.784;9.336;2023-04-25T00:43:52;8.20;99.90
37786;DHT22;23625;48.784;9.336;2023-04-25T00:46:19;8.20;99.90
37786;DHT22;23625;48.784;9.336;2023-04-25T00:48:44;8.10;99.90
37786;DHT22;23625;48.784;9.336;2023-04-25T00:51:16;8.00;99.90
37786;DHT22;23625;48.784;9.336;2023-04-25T00:53:45;8.00;99.90
37786;DHT22;23625;48.784;9.336;2023-04-25T00:56:10;8.00;99.90
37786;DHT22;23625;48.784;9.336;2023-04-25T00:58:36;7.90;99.90
37786;DHT22;23625;48.784;9.336;2023-04-25T01:01:02;8.00;99.90
37786;DHT22;23625;48.784;9.336;2023-04-25T01:03:28;7.90;99.90
37786;DHT22;23625;48.784;9.336;2023-04-25T01:05:55;7.90;99.90
37786;DHT22;23625;48.784;9.336;2023-04-25T01:08:23;7.90;99.90
37786;DHT22;23625;48.784;9.336;2023-04-25T01:10:50;7.90;99.90
37786;DHT22;23625;48.784;9.336;2023-04-25T01:13:16;7.90;99.90
37786;DHT22;23625;48.784;9.336;2023-04-25T01:15:42;7.90;99.90
37786;DHT22;23625;48.784;9.336;2023-04-25T01:18:07;7.90;99.90
37786;DHT22;23625;48.784;9.336;2023-04-25T01:20:33;7.90;99.90
37786;DHT22;23625;48.784;9.336;2023-04-25T01:22:59;7.90;99.90
37786;DHT22;23625;48.784;9.336;2023-04-25T01:25:26;7.90;99.90
37786;DHT22;23625;48.784;9.336;2023-04-25T01:27:51;7.90;99.90
37786;DHT22;23625;48.784;9.336;2023-04-25T01:30:17;7.90;99.90
37786;DHT22;23625;48.784;9.336;2023-04-25T01:32:44;7.90;99.90
37786;DHT22;23625;48.784;9.336;2023-04-25T01:35:11;7.90;99.90
37786;DHT22;23625;48.784;9.336;2023-04-25T01:37:41;8.00;99.90
37786;DHT22;23625;48.784;9.336;2023-04-25T01:40:08;8.00;99.90
37786;DHT22;23625;48.784;9.336;2023-04-25T01:42:35;8.00;99.90
37786;DHT22;23625;48.784;9.336;2023-04-25T01:45:01;8.00;99.90
37786;DHT22;23625;48.784;9.336;2023-04-25T01:47:27;8.00;99.90
37786;DHT22;23625;48.784;9.336;2023-04-25T01:49:53;8.00;99.90
37786;DHT22;23625;48.784;9.336;2023-04-25T01:52:19;7.90;99.90
37786;DHT22;23625;48.784;9.336;2023-04-25T01:54:44;7.90;99.90
37786;DHT22;23625;48.784;9.336;2023-04-25T01:57:11;7.80;99.90
37786;DHT22;23625;48.784;9.336;2023-04-25T01:59:36;7.80;99.90
37786;DHT22;23625;48.784;9.336;2023-04-25T02:02:02;7.70;99.90
37786;DHT22;23625;48.784;9.336;2023-04-25T02:04:29;7.70;99.90
37786;DHT22;23625;48.784;9.336;2023-04-25T02:06:55;7.60;99.90
37786;DHT22;23625;48.784;9.336;2023-04-25T02:09:21;7.60;99.90
37786;DHT22;23625;48.784;9.336;2023-04-25T02:11:46;7.50;99.90
37786;DHT22;23625;48.784;9.336;2023-04-25T02:14:12;7.50;99.90
37786;DHT22;23625;48.784;9.336;2023-04-25T02:16:38;7.60;99.90
37786;DHT22;23625;48.784;9.336;2023-04-25T02:19:03;7.60;99.90
37786;DHT22;23625;48.784;9.336;2023-04-25T02:21:30;7.70;99.90
37786;DHT22;23625;48.784;9.336;2023-04-25T02:23:56;7.70;99.90
37786;DHT22;23625;48.784;9.336;2023-04-25T02:26:21;7.70;99.90
37786;DHT22;23625;48.784;9.336;2023-04-25T02:28:49;7.70;99.90
37786;DHT22;23625;48.784;9.336;2023-04-25T02:31:15;7.80;99.90
37786;DHT22;23625;48.784;9.336;2023-04-25T02:33:41;7.80;99.90
37786;DHT22;23625;48.784;9.336;2023-04-25T02:36:07;7.80;99.90
37786;DHT22;23625;48.784;9.336;2023-04-25T02:38:32;7.70;99.90
37786;DHT22;23625;48.784;9.336;2023-04-25T02:40:58;7.80;99.90
37786;DHT22;23625;48.784;9.336;2023-04-25T02:43:24;7.80;99.90
37786;DHT22;23625;48.784;9.336;2023-04-25T02:45:49;7.70;99.90
37786;DHT22;23625;48.784;9.336;2023-04-25T02:48:15;7.70;99.90
37786;DHT22;23625;48.784;9.336;2023-04-25T02:50:41;7.70;99.90
37786;DHT22;23625;48.784;9.336;2023-04-25T02:53:06;7.70;99.90
37786;DHT22;23625;48.784;9.336;2023-04-25T02:55:32;7.70;99.90
37786;DHT22;23625;48.784;9.336;2023-04-25T02:57:57;7.80;99.90
37786;DHT22;23625;48.784;9.336;2023-04-25T03:00:23;7.80;99.90
37786;DHT22;23625;48.784;9.336;2023-04-25T03:02:49;7.70;99.90
37786;DHT22;23625;48.784;9.336;2023-04-25T03:05:14;7.70;99.90
37786;DHT22;23625;48.784;9.336;2023-04-25T03:07:40;7.60;99.90
37786;DHT22;23625;48.784;9.336;2023-04-25T03:10:09;7.60;99.90
37786;DHT22;23625;48.784;9.336;2023-04-25T03:12:34;7.60;99.90
37786;DHT22;23625;48.784;9.336;2023-04-25T03:15:00;7.60;99.90
37786;DHT22;23625;48.784;9.336;2023-04-25T03:17:26;7.60;99.90
37786;DHT22;23625;48.784;9.336;2023-04-25T03:19:51;7.50;99.90
37786;DHT22;23625;48.784;9.336;2023-04-25T03:22:17;7.50;99.90
37786;DHT22;23625;48.784;9.336;2023-04-25T03:24:43;7.50;99.90
37786;DHT22;23625;48.784;9.336;2023-04-25T03:27:08;7.50;99.90
37786;DHT22;23625;48.784;9.336;2023-04-25T03:29:34;7.50;99.90
37786;DHT22;23625;48.784;9.336;2023-04-25T03:32:00;7.50;99.90
37786;DHT22;23625;48.784;9.336;2023-04-25T03:34:25;7.50;99.90
37786;DHT22;23625;48.784;9.336;2023-04-25T03:36:51;7.50;99.90
37786;DHT22;23625;48.784;9.336;2023-04-25T03:39:17;7.50;99.90
37786;DHT22;23625;48.784;9.336;2023-04-25T03:41:42;7.50;99.90
37786;DHT22;23625;48.784;9.336;2023-04-25T03:44:08;7.50;99.90
37786;DHT22;23625;48.784;9.336;2023-04-25T03:46:34;7.50;99.90
37786;DHT22;23625;48.784;9.336;2023-04-25T03:48:59;7.00;99.90
37786;DHT22;23625;48.784;9.336;2023-04-25T03:51:25;7.50;99.90
37786;DHT22;23625;48.784;9.336;2023-04-25T03:53:51;7.40;99.90
37786;DHT22;23625;48.784;9.336;2023-04-25T03:56:17;7.40;99.90
37786;DHT22;23625;48.784;9.336;2023-04-25T03:58:44;7.50;99.90
37786;DHT22;23625;48.784;9.336;2023-04-25T04:01:10;7.50;99.90
37786;DHT22;23625;48.784;9.336;2023-04-25T04:03:36;7.60;99.90
37786;DHT22;23625;48.784;9.336;2023-04-25T04:06:05;7.60;99.90
37786;DHT22;23625;48.784;9.336;2023-04-25T04:08:32;7.60;99.90
37786;DHT22;23625;48.784;9.336;2023-04-25T04:10:58;7.60;99.90
37786;DHT22;23625;48.784;9.336;2023-04-25T04:13:26;7.50;99.90
37786;DHT22;23625;48.784;9.336;2023-04-25T04:15:52;7.50;99.90
37786;DHT22;23625;48.784;9.336;2023-04-25T04:18:17;7.50;99.90
37786;DHT22;23625;48.784;9.336;2023-04-25T04:20:43;7.40;99.90
37786;DHT22;23625;48.784;9.336;2023-04-25T04:23:08;7.30;99.90
37786;DHT22;23625;48.784;9.336;2023-04-25T04:25:34;7.30;99.90
37786;DHT22;23625;48.784;9.336;2023-04-25T04:28:00;7.30;99.90
37786;DHT22;23625;48.784;9.336;2023-04-25T04:30:26;7.20;99.90
37786;DHT22;23625;48.784;9.336;2023-04-25T04:32:55;7.20;99.90
37786;DHT22;23625;48.784;9.336;2023-04-25T04:35:22;7.20;99.90
37786;DHT22;23625;48.784;9.336;2023-04-25T04:37:48;7.10;99.90
37786;DHT22;23625;48.784;9.336;2023-04-25T04:40:14;7.10;99.90
37786;DHT22;23625;48.784;9.336;2023-04-25T04:42:43;7.20;99.90
37786;DHT22;23625;48.784;9.336;2023-04-25T04:45:10;7.10;99.90
37786;DHT22;23625;48.784;9.336;2023-04-25T04:47:37;7.10;99.90
37786;DHT22;23625;48.784;9.336;2023-04-25T04:50:05;7.10;99.90
37786;DHT22;23625;48.784;9.336;2023-04-25T04:52:34;7.20;99.90
37786;DHT22;23625;48.784;9.336;2023-04-25T04:54:59;7.30;99.90
37786;DHT22;23625;48.784;9.336;2023-04-25T04:57:25;7.20;99.90
37786;DHT22;23625;48.784;9.336;2023-04-25T04:59:51;7.20;99.90
37786;DHT22;23625;48.784;9.336;2023-04-25T05:02:16;7.30;99.90
37786;DHT22;23625;48.784;9.336;2023-04-25T05:04:42;7.30;99.90
37786;DHT22;23625;48.784;9.336;2023-04-25T05:07:07;7.30;99.90
37786;DHT22;23625;48.784;9.336;2023-04-25T05:09:33;7.50;99.90
37786;DHT22;23625;48.784;9.336;2023-04-25T05:11:59;7.40;99.90
37786;DHT22;23625;48.784;9.336;2023-04-25T05:14:24;7.50;99.90
37786;DHT22;23625;48.784;9.336;2023-04-25T05:16:50;7.50;99.90
37786;DHT22;23625;48.784;9.336;2023-04-25T05:19:16;7.50;99.90
37786;DHT22;23625;48.784;9.336;2023-04-25T05:21:41;7.60;99.90
37786;DHT22;23625;48.784;9.336;2023-04-25T05:24:08;7.70;99.90
37786;DHT22;23625;48.784;9.336;2023-04-25T05:26:34;8.00;99.90
37786;DHT22;23625;48.784;9.336;2023-04-25T05:29:00;7.70;99.90
37786;DHT22;23625;48.784;9.336;2023-04-25T05:31:26;7.70;99.90
37786;DHT22;23625;48.784;9.336;2023-04-25T05:33:51;7.80;99.90
37786;DHT22;23625;48.784;9.336;2023-04-25T05:36:18;7.90;99.90
37786;DHT22;23625;48.784;9.336;2023-04-25T05:38:44;8.00;99.90
37786;DHT22;23625;48.784;9.336;2023-04-25T05:41:10;8.10;99.90
37786;DHT22;23625;48.784;9.336;2023-04-25T05:43:36;8.20;99.90
37786;DHT22;23625;48.784;9.336;2023-04-25T05:46:01;8.30;99.90
37786;DHT22;23625;48.784;9.336;2023-04-25T05:48:27;8.40;99.90
37786;DHT22;23625;48.784;9.336;2023-04-25T05:50:52;8.60;99.90
37786;DHT22;23625;48.784;9.336;2023-04-25T05:53:19;8.60;99.90
37786;DHT22;23625;48.784;9.336;2023-04-25T05:55:45;8.60;99.90
37786;DHT22;23625;48.784;9.336;2023-04-25T05:58:11;8.60;99.90
37786;DHT22;23625;48.784;9.336;2023-04-25T06:00:37;8.60;99.90
37786;DHT22;23625;48.784;9.336;2023-04-25T06:03:03;8.80;99.90
37786;DHT22;23625;48.784;9.336;2023-04-25T06:05:29;8.90;99.90
37786;DHT22;23625;48.784;9.336;2023-04-25T06:07:55;8.90;99.90
37786;DHT22;23625;48.784;9.336;2023-04-25T06:10:21;9.00;99.90
37786;DHT22;23625;48.784;9.336;2023-04-25T06:12:48;8.90;99.90
37786;DHT22;23625;48.784;9.336;2023-04-25T06:15:14;8.90;99.90
37786;DHT22;23625;48.784;9.336;2023-04-25T06:17:40;8.90;99.90
37786;DHT22;23625;48.784;9.336;2023-04-25T06:20:07;8.70;99.90
37786;DHT22;23625;48.784;9.336;2023-04-25T06:22:33;8.70;99.90
37786;DHT22;23625;48.784;9.336;2023-04-25T06:24:59;8.70;99.90
37786;DHT22;23625;48.784;9.336;2023-04-25T06:27:25;8.70;99.90
37786;DHT22;23625;48.784;9.336;2023-04-25T06:29:51;8.80;99.90
37786;DHT22;23625;48.784;9.336;2023-04-25T06:32:16;8.70;99.90
37786;DHT22;23625;48.784;9.336;2023-04-25T06:34:43;8.70;99.90
37786;DHT22;23625;48.784;9.336;2023-04-25T06:37:09;8.80;99.90
37786;DHT22;23625;48.784;9.336;2023-04-25T06:39:34;8.80;99.90
37786;DHT22;23625;48.784;9.336;2023-04-25T06:42:00;8.90;99.90
37786;DHT22;23625;48.784;9.336;2023-04-25T06:44:26;8.90;99.90
37786;DHT22;23625;48.784;9.336;2023-04-25T06:46:51;9.00;99.90
37786;DHT22;23625;48.784;9.336;2023-04-25T06:49:17;9.20;99.90
37786;DHT22;23625;48.784;9.336;2023-04-25T06:51:42;9.30;99.90
37786;DHT22;23625;48.784;9.336;2023-04-25T06:54:08;9.20;99.90
37786;DHT22;23625;48.784;9.336;2023-04-25T06:56:34;9.30;99.90
37786;DHT22;23625;48.784;9.336;2023-04-25T06:58:59;9.40;99.90
37786;DHT22;23625;48.784;9.336;2023-04-25T07:01:26;9.50;99.90
37786;DHT22;23625;48.784;9.336;2023-04-25T07:03:51;9.40;99.90
37786;DHT22;23625;48.784;9.336;2023-04-25T07:06:17;9.40;99.90
37786;DHT22;23625;48.784;9.336;2023-04-25T07:08:42;9.60;99.90
37786;DHT22;23625;48.784;9.336;2023-04-25T07:11:08;9.50;99.90
37786;DHT22;23625;48.784;9.336;2023-04-25T07:13:34;9.60;99.90
37786;DHT22;23625;48.784;9.336;2023-04-25T07:16:00;9.60;99.90
37786;DHT22;23625;48.784;9.336;2023-04-25T07:18:25;9.60;99.90
37786;DHT22;23625;48.784;9.336;2023-04-25T07:20:51;9.60;99.90
37786;DHT22;23625;48.784;9.336;2023-04-25T07:23:16;9.60;99.90
37786;DHT22;23625;48.784;9.336;2023-04-25T07:25:42;9.60;99.90
37786;DHT22;23625;48.784;9.336;2023-04-25T07:28:07;9.60;99.90
37786;DHT22;23625;48.784;9.336;2023-04-25T07:30:33;9.60;99.90
37786;DHT22;23625;48.784;9.336;2023-04-25T07:33:00;9.60;99.90
37786;DHT22;23625;48.784;9.336;2023-04-25T07:35:25;9.60;99.90
37786;DHT22;23625;48.784;9.336;2023-04-25T07:37:51;9.50;99.90
37786;DHT22;23625;48.784;9.336;2023-04-25T07:40:17;9.70;99.90
37786;DHT22;23625;48.784;9.336;2023-04-25T07:42:42;9.50;99.90
37786;DHT22;23625;48.784;9.336;2023-04-25T07:45:08;9.40;99.90
37786;DHT22;23625;48.784;9.336;2023-04-25T07:47:35;9.30;99.90
37786;DHT22;23625;48.784;9.336;2023-04-25T07:50:01;9.30;99.90
37786;DHT22;23625;48.784;9.336;2023-04-25T07:52:26;9.30;99.90
37786;DHT22;23625;48.784;9.336;2023-04-25T07:54:52;9.20;99.90
37786;DHT22;23625;48.784;9.336;2023-04-25T07:57:18;9.30;99.90
37786;DHT22;23625;48.784;9.336;2023-04-25T07:59:44;9.30;99.90
37786;DHT22;23625;48.784;9.336;2023-04-25T08:02:10;9.30;99.90
37786;DHT22;23625;48.784;9.336;2023-04-25T08:04:36;9.20;99.90
37786;DHT22;23625;48.784;9.336;2023-04-25T08:07:01;9.20;99.90
37786;DHT22;23625;48.784;9.336;2023-04-25T08:09:27;9.10;99.90
37786;DHT22;23625;48.784;9.336;2023-04-25T08:11:52;9.10;99.90
37786;DHT22;23625;48.784;9.336;2023-04-25T08:14:18;9.20;99.90
37786;DHT22;23625;48.784;9.336;2023-04-25T08:16:44;9.20;99.90
37786;DHT22;23625;48.784;9.336;2023-04-25T08:19:10;9.30;99.90
37786;DHT22;23625;48.784;9.336;2023-04-25T08:21:36;9.20;99.90
37786;DHT22;23625;48.784;9.336;2023-04-25T08:24:02;9.10;99.90
37786;DHT22;23625;48.784;9.336;2023-04-25T08:26:28;9.10;99.90
37786;DHT22;23625;48.784;9.336;2023-04-25T08:28:54;9.10;99.90
37786;DHT22;23625;48.784;9.336;2023-04-25T08:31:19;9.10;99.90
37786;DHT22;23625;48.784;9.336;2023-04-25T08:33:46;9.10;99.90
37786;DHT22;23625;48.784;9.336;2023-04-25T08:36:11;9.10;99.90
37786;DHT22;23625;48.784;9.336;2023-04-25T08:38:37;9.10;99.90
37786;DHT22;23625;48.784;9.336;2023-04-25T08:41:03;8.90;99.90
37786;DHT22;23625;48.784;9.336;2023-04-25T08:43:29;8.70;99.90
37786;DHT22;23625;48.784;9.336;2023-04-25T08:45:59;8.60;99.90
37786;DHT22;23625;48.784;9.336;2023-04-25T08:48:27;8.60;99.90
37786;DHT22;23625;48.784;9.336;2023-04-25T08:50:54;8.50;99.90
37786;DHT22;23625;48.784;9.336;2023-04-25T08:53:31;8.50;99.90
37786;DHT22;23625;48.784;9.336;2023-04-25T08:55:58;8.60;99.90
37786;DHT22;23625;48.784;9.336;2023-04-25T08:58:24;8.50;99.90
37786;DHT22;23625;48.784;9.336;2023-04-25T09:00:51;8.60;99.90
37786;DHT22;23625;48.784;9.336;2023-04-25T09:03:17;8.70;99.90
37786;DHT22;23625;48.784;9.336;2023-04-25T09:05:43;8.70;99.90
37786;DHT22;23625;48.784;9.336;2023-04-25T09:08:09;8.70;99.90
37786;DHT22;23625;48.784;9.336;2023-04-25T09:10:36;8.90;99.90
37786;DHT22;23625;48.784;9.336;2023-04-25T09:13:13;8.90;99.90
37786;DHT22;23625;48.784;9.336;2023-04-25T09:15:55;9.10;99.90
37786;DHT22;23625;48.784;9.336;2023-04-25T09:18:34;9.00;99.90
37786;DHT22;23625;48.784;9.336;2023-04-25T09:21:08;8.90;99.90
37786;DHT22;23625;48.784;9.336;2023-04-25T09:23:48;8.80;99.90
37786;DHT22;23625;48.784;9.336;2023-04-25T09:26:19;8.80;99.90
37786;DHT22;23625;48.784;9.336;2023-04-25T09:28:45;8.60;99.90
37786;DHT22;23625;48.784;9.336;2023-04-25T09:31:24;8.40;99.90
37786;DHT22;23625;48.784;9.336;2023-04-25T09:33:49;8.30;99.90
37786;DHT22;23625;48.784;9.336;2023-04-25T09:36:15;8.30;99.90
37786;DHT22;23625;48.784;9.336;2023-04-25T09:38:45;8.20;99.90
37786;DHT22;23625;48.784;9.336;2023-04-25T09:41:11;8.10;99.90
37786;DHT22;23625;48.784;9.336;2023-04-25T09:43:38;8.10;99.90
37786;DHT22;23625;48.784;9.336;2023-04-25T09:46:13;8.00;99.90
37786;DHT22;23625;48.784;9.336;2023-04-25T09:48:38;8.10;99.90
37786;DHT22;23625;48.784;9.336;2023-04-25T09:53:35;8.10;99.90
37786;DHT22;23625;48.784;9.336;2023-04-25T09:56:04;8.00;99.90
37786;DHT22;23625;48.784;9.336;2023-04-25T09:58:31;7.90;99.90
37786;DHT22;23625;48.784;9.336;2023-04-25T10:01:00;7.80;99.90
37786;DHT22;23625;48.784;9.336;2023-04-25T10:03:26;7.90;99.90
37786;DHT22;23625;48.784;9.336;2023-04-25T10:05:53;7.90;99.90
37786;DHT22;23625;48.784;9.336;2023-04-25T10:08:20;7.80;99.90
37786;DHT22;23625;48.784;9.336;2023-04-25T10:10:46;7.70;99.90
37786;DHT22;23625;48.784;9.336;2023-04-25T10:13:14;7.60;99.90
37786;DHT22;23625;48.784;9.336;2023-04-25T10:15:40;7.60;99.90
37786;DHT22;23625;48.784;9.336;2023-04-25T10:18:07;7.50;99.90
37786;DHT22;23625;48.784;9.336;2023-04-25T10:20:33;7.50;99.90
37786;DHT22;23625;48.784;9.336;2023-04-25T10:23:11;7.50;99.90
37786;DHT22;23625;48.784;9.336;2023-04-25T10:25:39;7.50;99.90
37786;DHT22;23625;48.784;9.336;2023-04-25T10:28:05;7.40;99.90
37786;DHT22;23625;48.784;9.336;2023-04-25T10:30:31;7.40;99.90
37786;DHT22;23625;48.784;9.336;2023-04-25T10:32:58;7.50;99.90
37786;DHT22;23625;48.784;9.336;2023-04-25T10:35:29;7.60;99.90
37786;DHT22;23625;48.784;9.336;2023-04-25T10:38:06;7.70;99.90
37786;DHT22;23625;48.784;9.336;2023-04-25T10:40:34;7.60;99.90
37786;DHT22;23625;48.784;9.336;2023-04-25T10:45:56;7.60;99.90
37786;DHT22;23625;48.784;9.336;2023-04-25T10:48:28;7.60;99.90
37786;DHT22;23625;48.784;9.336;2023-04-25T10:53:35;7.50;99.90
37786;DHT22;23625;48.784;9.336;2023-04-25T10:56:08;7.60;99.90
37786;DHT22;23625;48.784;9.336;2023-04-25T10:58:34;7.60;99.90
37786;DHT22;23625;48.784;9.336;2023-04-25T11:01:01;7.60;99.90
37786;DHT22;23625;48.784;9.336;2023-04-25T11:03:26;7.50;99.90
37786;DHT22;23625;48.784;9.336;2023-04-25T11:05:52;7.50;99.90
37786;DHT22;23625;48.784;9.336;2023-04-25T11:08:32;7.40;99.90
37786;DHT22;23625;48.784;9.336;2023-04-25T11:11:01;7.40;99.90
37786;DHT22;23625;48.784;9.336;2023-04-25T11:13:30;7.40;99.90
37786;DHT22;23625;48.784;9.336;2023-04-25T11:15:59;7.40;99.90
37786;DHT22;23625;48.784;9.336;2023-04-25T11:18:26;7.40;99.90
37786;DHT22;23625;48.784;9.336;2023-04-25T11:20:52;7.40;99.90
37786;DHT22;23625;48.784;9.336;2023-04-25T11:23:18;7.40;99.90
37786;DHT22;23625;48.784;9.336;2023-04-25T11:25:44;7.30;99.90
37786;DHT22;23625;48.784;9.336;2023-04-25T11:28:10;7.30;99.90
37786;DHT22;23625;48.784;9.336;2023-04-25T11:30:35;7.40;99.90
37786;DHT22;23625;48.784;9.336;2023-04-25T11:33:01;7.40;99.90
37786;DHT22;23625;48.784;9.336;2023-04-25T11:35:28;7.40;99.90
37786;DHT22;23625;48.784;9.336;2023-04-25T11:37:54;7.40;99.90
37786;DHT22;23625;48.784;9.336;2023-04-25T11:40:20;7.50;99.90
37786;DHT22;23625;48.784;9.336;2023-04-25T11:42:46;7.60;99.90
37786;DHT22;23625;48.784;9.336;2023-04-25T11:45:13;7.60;99.90
37786;DHT22;23625;48.784;9.336;2023-04-25T11:47:39;7.60;99.90
37786;DHT22;23625;48.784;9.336;2023-04-25T11:50:07;7.60;99.90
37786;DHT22;23625;48.784;9.336;2023-04-25T11:52:41;7.90;99.90
37786;DHT22;23625;48.784;9.336;2023-04-25T11:55:09;7.90;99.90
37786;DHT22;23625;48.784;9.336;2023-04-25T11:57:38;8.00;99.90
37786;DHT22;23625;48.784;9.336;2023-04-25T12:00:18;8.20;99.90
37786;DHT22;23625;48.784;9.336;2023-04-25T12:02:47;8.20;99.90
37786;DHT22;23625;48.784;9.336;2023-04-25T12:05:14;8.20;99.90
37786;DHT22;23625;48.784;9.336;2023-04-25T12:07:43;8.30;99.90
37786;DHT22;23625;48.784;9.336;2023-04-25T12:10:14;8.30;99.90
37786;DHT22;23625;48.784;9.336;2023-04-25T12:12:45;8.30;99.90
37786;DHT22;23625;48.784;9.336;2023-04-25T12:17:38;8.40;99.90
37786;DHT22;23625;48.784;9.336;2023-04-25T12:20:08;8.40;99.90
37786;DHT22;23625;48.784;9.336;2023-04-25T12:22:34;8.40;99.90
37786;DHT22;23625;48.784;9.336;2023-04-25T12:25:00;8.50;99.90
37786;DHT22;23625;48.784;9.336;2023-04-25T12:27:25;8.60;99.90
37786;DHT22;23625;48.784;9.336;2023-04-25T12:29:54;8.60;99.90
37786;DHT22;23625;48.784;9.336;2023-04-25T12:32:20;8.70;99.90
37786;DHT22;23625;48.784;9.336;2023-04-25T12:34:46;8.70;99.90
37786;DHT22;23625;48.784;9.336;2023-04-25T12:37:11;8.70;99.90
37786;DHT22;23625;48.784;9.336;2023-04-25T12:39:37;8.60;99.90
37786;DHT22;23625;48.784;9.336;2023-04-25T12:42:03;8.60;99.90
37786;DHT22;23625;48.784;9.336;2023-04-25T12:44:29;8.60;99.90
37786;DHT22;23625;48.784;9.336;2023-04-25T12:46:54;8.50;99.90
37786;DHT22;23625;48.784;9.336;2023-04-25T12:49:20;8.50;99.90
37786;DHT22;23625;48.784;9.336;2023-04-25T12:51:46;8.50;99.90
37786;DHT22;23625;48.784;9.336;2023-04-25T12:54:12;8.40;99.90
37786;DHT22;23625;48.784;9.336;2023-04-25T12:56:38;8.60;99.90
37786;DHT22;23625;48.784;9.336;2023-04-25T12:59:03;8.60;99.90
37786;DHT22;23625;48.784;9.336;2023-04-25T13:01:29;8.50;99.90
37786;DHT22;23625;48.784;9.336;2023-04-25T13:03:55;8.60;99.90
37786;DHT22;23625;48.784;9.336;2023-04-25T13:06:21;8.60;99.90
37786;DHT22;23625;48.784;9.336;2023-04-25T13:08:47;8.60;99.90
37786;DHT22;23625;48.784;9.336;2023-04-25T13:11:14;8.80;99.90
37786;DHT22;23625;48.784;9.336;2023-04-25T13:13:40;9.00;99.90
37786;DHT22;23625;48.784;9.336;2023-04-25T13:16:07;9.20;99.90
37786;DHT22;23625;48.784;9.336;2023-04-25T13:18:33;9.40;99.90
37786;DHT22;23625;48.784;9.336;2023-04-25T13:20:59;9.60;99.90
37786;DHT22;23625;48.784;9.336;2023-04-25T13:23:26;9.80;99.90
37786;DHT22;23625;48.784;9.336;2023-04-25T13:25:52;10.30;99.90
37786;DHT22;23625;48.784;9.336;2023-04-25T13:28:18;10.70;99.90
37786;DHT22;23625;48.784;9.336;2023-04-25T13:30:44;11.00;99.90
37786;DHT22;23625;48.784;9.336;2023-04-25T13:33:11;10.80;99.90
37786;DHT22;23625;48.784;9.336;2023-04-25T13:35:37;10.80;99.90
37786;DHT22;23625;48.784;9.336;2023-04-25T13:38:03;10.80;99.90
37786;DHT22;23625;48.784;9.336;2023-04-25T13:40:29;10.70;99.90
37786;DHT22;23625;48.784;9.336;2023-04-25T13:42:55;10.80;99.90
37786;DHT22;23625;48.784;9.336;2023-04-25T13:45:21;10.90;99.90
37786;DHT22;23625;48.784;9.336;2023-04-25T13:47:47;11.20;99.90
37786;DHT22;23625;48.784;9.336;2023-04-25T13:50:13;11.40;99.90
37786;DHT22;23625;48.784;9.336;2023-04-25T13:52:40;11.80;99.90
37786;DHT22;23625;48.784;9.336;2023-04-25T13:55:06;11.60;99.90
37786;DHT22;23625;48.784;9.336;2023-04-25T13:57:34;11.40;99.90
37786;DHT22;23625;48.784;9.336;2023-04-25T14:00:00;11.20;99.90
37786;DHT22;23625;48.784;9.336;2023-04-25T14:02:30;11.10;99.90
37786;DHT22;23625;48.784;9.336;2023-04-25T14:04:55;11.20;99.90
37786;DHT22;23625;48.784;9.336;2023-04-25T14:07:21;11.10;99.90
37786;DHT22;23625;48.784;9.336;2023-04-25T14:09:47;11.00;99.90
37786;DHT22;23625;48.784;9.336;2023-04-25T14:12:12;11.10;99.90
37786;DHT22;23625;48.784;9.336;2023-04-25T14:14:38;11.30;99.90
37786;DHT22;23625;48.784;9.336;2023-04-25T14:17:04;11.10;99.90
37786;DHT22;23625;48.784;9.336;2023-04-25T14:19:30;11.10;99.90
37786;DHT22;23625;48.784;9.336;2023-04-25T14:21:55;11.20;99.90
37786;DHT22;23625;48.784;9.336;2023-04-25T14:24:24;11.10;99.90
37786;DHT22;23625;48.784;9.336;2023-04-25T14:26:50;10.90;99.90
37786;DHT22;23625;48.784;9.336;2023-04-25T14:29:16;11.00;99.90
37786;DHT22;23625;48.784;9.336;2023-04-25T14:31:41;11.30;99.90
37786;DHT22;23625;48.784;9.336;2023-04-25T14:34:07;11.60;99.90
37786;DHT22;23625;48.784;9.336;2023-04-25T14:36:33;11.60;99.90
37786;DHT22;23625;48.784;9.336;2023-04-25T14:38:59;11.60;99.90
37786;DHT22;23625;48.784;9.336;2023-04-25T14:41:25;11.80;99.90
37786;DHT22;23625;48.784;9.336;2023-04-25T14:43:52;11.90;99.90
37786;DHT22;23625;48.784;9.336;2023-04-25T14:46:19;12.10;98.60
37786;DHT22;23625;48.784;9.336;2023-04-25T14:48:45;12.10;99.90
37786;DHT22;23625;48.784;9.336;2023-04-25T14:51:11;12.10;99.90
37786;DHT22;23625;48.784;9.336;2023-04-25T14:53:36;12.10;99.90
37786;DHT22;23625;48.784;9.336;2023-04-25T14:56:02;12.00;99.90
37786;DHT22;23625;48.784;9.336;2023-04-25T14:58:28;12.00;98.60
37786;DHT22;23625;48.784;9.336;2023-04-25T15:00:54;11.90;99.90
37786;DHT22;23625;48.784;9.336;2023-04-25T15:03:20;11.70;99.60
37786;DHT22;23625;48.784;9.336;2023-04-25T15:05:45;11.60;99.90
37786;DHT22;23625;48.784;9.336;2023-04-25T15:08:11;11.40;99.90
37786;DHT22;23625;48.784;9.336;2023-04-25T15:10:36;11.30;99.90
37786;DHT22;23625;48.784;9.336;2023-04-25T15:13:03;11.20;99.90
37786;DHT22;23625;48.784;9.336;2023-04-25T15:15:29;11.10;99.90
37786;DHT22;23625;48.784;9.336;2023-04-25T15:17:55;11.20;99.90
37786;DHT22;23625;48.784;9.336;2023-04-25T15:20:21;11.50;99.90
37786;DHT22;23625;48.784;9.336;2023-04-25T15:22:47;11.50;99.90
37786;DHT22;23625;48.784;9.336;2023-04-25T15:25:14;11.50;99.90
37786;DHT22;23625;48.784;9.336;2023-04-25T15:27:41;11.40;99.90
37786;DHT22;23625;48.784;9.336;2023-04-25T15:30:10;11.50;99.00
37786;DHT22;23625;48.784;9.336;2023-04-25T15:32:44;11.30;99.90
37786;DHT22;23625;48.784;9.336;2023-04-25T15:35:10;11.40;99.90
37786;DHT22;23625;48.784;9.336;2023-04-25T15:37:37;11.70;99.90
37786;DHT22;23625;48.784;9.336;2023-04-25T15:40:06;11.80;99.90
37786;DHT22;23625;48.784;9.336;2023-04-25T15:42:38;11.80;99.90
37786;DHT22;23625;48.784;9.336;2023-04-25T15:45:08;11.70;99.90
37786;DHT22;23625;48.784;9.336;2023-04-25T15:47:35;11.70;99.90
37786;DHT22;23625;48.784;9.336;2023-04-25T15:50:01;11.60;99.90